createdAt,value
2023-04-08T00:00:54.862Z,93759.72
2023-04-08T00:01:52.439Z,93753.97
2023-04-08T00:02:49.387Z,93760.22
2023-04-08T00:03:46.328Z,93721.13
2023-04-08T00:04:43.333Z,93755.91
2023-04-08T00:05:40.005Z,93766.16
2023-04-08T00:06:37.310Z,93760.13
2023-04-08T00:07:34.194Z,93771.16
2023-04-08T00:08:31.067Z,93748.03
2023-04-08T00:09:27.709Z,93767.13
2023-04-08T00:10:26.407Z,93754.56
2023-04-08T00:11:23.105Z,93761.41
2023-04-08T00:12:19.791Z,93764.03
2023-04-08T00:13:16.404Z,93746.88
2023-04-08T00:14:13.031Z,93757.59
2023-04-08T00:15:10.029Z,93753.59
2023-04-08T00:16:06.713Z,93755.19
2023-04-08T00:17:03.423Z,93739.44
2023-04-08T00:18:00.198Z,93758.16
2023-04-08T00:18:57.277Z,93760.81
2023-04-08T00:19:55.418Z,93763.44
2023-04-08T00:20:52.011Z,93759.06
2023-04-08T00:21:48.707Z,93751.25
2023-04-08T00:22:45.907Z,93750.47
2023-04-08T00:23:42.456Z,93750.47
2023-04-08T00:24:40.568Z,93754.06
2023-04-08T00:25:37.265Z,93752.03
2023-04-08T00:26:33.886Z,93732.09
2023-04-08T00:27:30.537Z,93756.81
2023-04-08T00:28:27.078Z,93758.88
2023-04-08T00:29:23.795Z,93750.75
2023-04-08T00:30:20.465Z,93754.19
2023-04-08T00:31:17.259Z,93634.66
2023-04-08T00:32:13.906Z,93753.59
2023-04-08T00:33:10.715Z,93748.03
2023-04-08T00:34:07.396Z,93753.50
2023-04-08T00:35:04.805Z,93715.41
2023-04-08T00:36:01.447Z,93733.31
2023-04-08T00:36:58.283Z,93751.72
2023-04-08T00:37:54.911Z,93750.06
2023-04-08T00:38:51.921Z,93748.13
2023-04-08T00:39:48.758Z,93753.22
2023-04-08T00:40:45.471Z,93751.44
2023-04-08T00:41:42.155Z,93749.22
2023-04-08T00:42:39.211Z,93751.25
2023-04-08T00:43:35.928Z,93707.22
2023-04-08T00:44:32.510Z,93749.41
2023-04-08T00:45:29.141Z,93755.63
2023-04-08T00:46:26.872Z,93756.72
2023-04-08T00:47:24.028Z,93752.16
2023-04-08T00:48:20.716Z,93760.44
2023-04-08T00:49:17.939Z,93759.66
2023-04-08T00:50:14.563Z,93750.88
2023-04-08T00:51:11.296Z,93757.19
2023-04-08T00:52:07.898Z,93714.81
2023-04-08T00:53:04.495Z,93758.66
2023-04-08T00:54:01.069Z,93761.88
2023-04-08T00:54:57.651Z,93750.88
2023-04-08T00:55:54.260Z,93766.28
2023-04-08T00:56:51.203Z,93756.59
2023-04-08T00:57:48.460Z,93705.94
2023-04-08T00:58:45.227Z,93763.53
2023-04-08T00:59:42.942Z,93736.06
2023-04-08T01:00:43.901Z,93761.59
2023-04-08T01:02:10.044Z,93768.81
2023-04-08T01:03:36.601Z,93772.16
2023-04-08T01:04:38.730Z,93769.22
2023-04-08T01:05:54.224Z,93773.31
2023-04-08T01:07:08.794Z,93768.34
2023-04-08T01:08:08.591Z,93769.88
2023-04-08T01:09:06.172Z,93749.22
2023-04-08T01:10:07.825Z,93719.69
2023-04-08T01:11:08.438Z,93760.34
2023-04-08T01:12:08.161Z,93759.69
2023-04-08T01:13:10.240Z,93762.09
2023-04-08T01:14:10.306Z,93765.00
2023-04-08T01:15:08.825Z,93762.19
2023-04-08T01:16:06.295Z,93679.06
2023-04-08T01:17:04.065Z,93763.75
2023-04-08T01:18:02.742Z,93762.78
2023-04-08T01:18:59.683Z,93755.38
2023-04-08T01:19:59.523Z,93763.47
2023-04-08T01:20:56.912Z,93766.38
2023-04-08T01:21:59.192Z,93768.44
2023-04-08T01:23:01.913Z,93770.56
2023-04-08T01:24:18.808Z,93764.53
2023-04-08T01:25:19.977Z,93765.53
2023-04-08T01:26:23.098Z,93761.78
2023-04-08T01:27:19.957Z,93768.44
2023-04-08T01:28:19.685Z,93760.25
2023-04-08T01:29:17.350Z,93760.16
2023-04-08T01:30:16.218Z,93757.88
2023-04-08T01:31:12.976Z,93762.75
2023-04-08T01:32:11.998Z,93764.13
2023-04-08T01:33:12.351Z,93762.16
2023-04-08T01:34:11.976Z,93749.97
2023-04-08T01:35:09.867Z,93773.69
2023-04-08T01:36:08.013Z,93767.84
2023-04-08T01:37:06.361Z,93755.19
2023-04-08T01:38:03.823Z,93772.31
2023-04-08T01:39:03.156Z,93766.38
2023-04-08T01:40:01.627Z,93771.66
2023-04-08T01:40:58.958Z,93739.47
2023-04-08T01:41:57.282Z,93774.28
2023-04-08T01:42:59.783Z,93775.84
2023-04-08T01:43:56.686Z,93772.16
2023-04-08T01:44:56.480Z,93771.38
2023-04-08T01:45:58.330Z,93734.88
2023-04-08T01:46:56.828Z,93772.31
2023-04-08T01:47:53.801Z,93769.06
2023-04-08T01:48:51.736Z,93738.69
2023-04-08T01:49:50.435Z,93767.06
2023-04-08T01:50:47.901Z,93774.97
2023-04-08T01:51:46.633Z,93698.84
2023-04-08T01:52:45.328Z,93761.97
2023-04-08T01:53:42.120Z,93771.94
2023-04-08T01:54:38.950Z,93770.66
2023-04-08T01:55:36.454Z,93757.03
2023-04-08T01:56:39.349Z,93772.50
2023-04-08T01:57:38.772Z,93773.50
2023-04-08T01:58:39.786Z,93778.00
2023-04-08T01:59:40.318Z,93783.53
2023-04-08T02:00:39.091Z,93779.56
2023-04-08T02:01:36.460Z,93778.28
2023-04-08T02:02:35.907Z,93772.41
2023-04-08T02:03:35.789Z,93745.13
2023-04-08T02:04:34.502Z,93779.72
2023-04-08T02:05:31.216Z,93780.50
2023-04-08T02:06:29.412Z,93775.44
2023-04-08T02:07:26.038Z,93782.44
2023-04-08T02:08:22.683Z,93784.31
2023-04-08T02:09:19.353Z,93791.50
2023-04-08T02:10:16.338Z,93785.34
2023-04-08T02:11:13.196Z,93797.34
2023-04-08T02:12:09.910Z,93776.00
2023-04-08T02:13:07.493Z,93783.50
2023-04-08T02:14:04.338Z,93784.38
2023-04-08T02:15:01.255Z,93776.31
2023-04-08T02:16:04.862Z,93806.06
2023-04-08T02:17:04.268Z,93796.50
2023-04-08T02:18:09.087Z,93775.03
2023-04-08T02:19:16.728Z,93792.28
2023-04-08T02:20:50.355Z,93742.56
2023-04-08T02:21:52.558Z,93795.31
2023-04-08T02:23:02.394Z,93776.03
2023-04-08T02:24:01.233Z,93800.13
2023-04-08T02:25:01.282Z,93802.53
2023-04-08T02:25:58.438Z,93799.44
2023-04-08T02:26:56.857Z,93800.81
2023-04-08T02:27:56.598Z,93756.53
2023-04-08T02:28:55.409Z,93795.59
2023-04-08T02:29:56.167Z,93798.50
2023-04-08T02:30:53.482Z,93797.22
2023-04-08T02:31:51.323Z,93797.16
2023-04-08T02:32:49.189Z,93807.91
2023-04-08T02:33:46.721Z,93794.19
2023-04-08T02:34:44.357Z,93765.88
2023-04-08T02:35:41.941Z,93765.41
2023-04-08T02:36:41.022Z,93805.47
2023-04-08T02:37:38.039Z,93805.00
2023-04-08T02:38:34.647Z,93801.59
2023-04-08T02:39:34.859Z,93797.50
2023-04-08T02:40:33.606Z,93767.25
2023-04-08T02:41:31.444Z,93794.94
2023-04-08T02:42:28.042Z,93794.63
2023-04-08T02:43:31.774Z,93754.69
2023-04-08T02:44:28.429Z,93804.50
2023-04-08T02:45:31.403Z,93798.34
2023-04-08T02:46:28.024Z,93796.59
2023-04-08T02:47:24.555Z,93796.38
2023-04-08T02:48:21.182Z,93789.94
2023-04-08T02:49:17.755Z,93796.38
2023-04-08T02:50:14.388Z,93799.72
2023-04-08T02:51:11.022Z,93799.84
2023-04-08T02:52:07.667Z,93733.25
2023-04-08T02:53:04.323Z,93800.13
2023-04-08T02:54:00.919Z,93790.47
2023-04-08T02:54:57.570Z,93796.31
2023-04-08T02:55:54.125Z,93795.84
2023-04-08T02:56:50.866Z,93791.03
2023-04-08T02:57:49.058Z,93793.69
2023-04-08T02:58:46.155Z,93804.91
2023-04-08T02:59:42.872Z,93799.53
2023-04-08T03:00:39.925Z,93803.50
2023-04-08T03:01:36.619Z,93797.28
2023-04-08T03:02:33.593Z,93750.09
2023-04-08T03:03:31.377Z,93794.47
2023-04-08T03:04:28.030Z,93799.34
2023-04-08T03:05:26.667Z,93802.16
2023-04-08T03:06:23.277Z,93798.56
2023-04-08T03:07:19.867Z,93800.63
2023-04-08T03:08:16.466Z,93797.22
2023-04-08T03:09:13.087Z,93796.22
2023-04-08T03:10:09.908Z,93790.09
2023-04-08T03:11:06.627Z,93779.06
2023-04-08T03:12:03.262Z,93800.00
2023-04-08T03:12:59.917Z,93794.38
2023-04-08T03:13:56.666Z,93776.72
2023-04-08T03:14:53.652Z,93791.66
2023-04-08T03:15:50.275Z,93795.53
2023-04-08T03:16:46.982Z,93791.03
2023-04-08T03:17:43.893Z,93792.03
2023-04-08T03:18:40.596Z,93785.88
2023-04-08T03:19:37.149Z,93794.69
2023-04-08T03:20:33.825Z,93787.44
2023-04-08T03:21:32.487Z,93786.78
2023-04-08T03:22:29.089Z,93786.56
2023-04-08T03:23:25.829Z,93778.28
2023-04-08T03:24:22.460Z,93701.28
2023-04-08T03:25:19.163Z,93727.13
2023-04-08T03:26:15.875Z,93787.34
2023-04-08T03:27:12.784Z,93777.88
2023-04-08T03:28:09.380Z,93753.59
2023-04-08T03:29:07.004Z,93782.66
2023-04-08T03:30:04.438Z,93793.47
2023-04-08T03:31:01.420Z,93792.41
2023-04-08T03:31:58.128Z,93789.47
2023-04-08T03:32:55.072Z,93758.00
2023-04-08T03:33:51.906Z,93781.69
2023-04-08T03:34:53.666Z,93795.25
2023-04-08T03:35:50.625Z,93792.91
2023-04-08T03:36:47.394Z,93804.50
2023-04-08T03:37:44.007Z,93790.09
2023-04-08T03:38:40.827Z,93745.13
2023-04-08T03:39:38.010Z,93778.94
2023-04-08T03:40:34.679Z,93750.69
2023-04-08T03:41:31.364Z,93791.53
2023-04-08T03:42:27.910Z,93791.84
2023-04-08T03:43:25.580Z,93795.03
2023-04-08T03:44:22.248Z,93797.00
2023-04-08T03:45:19.192Z,93796.88
2023-04-08T03:46:15.972Z,93797.50
2023-04-08T03:47:12.617Z,93804.31
2023-04-08T03:48:09.332Z,93797.78
2023-04-08T03:49:05.922Z,93793.00
2023-04-08T03:50:02.539Z,93725.44
2023-04-08T03:50:59.172Z,93796.88
2023-04-08T03:51:55.827Z,93765.88
2023-04-08T03:52:52.397Z,93801.38
2023-04-08T03:53:49.332Z,93803.00
2023-04-08T03:54:45.908Z,93794.53
2023-04-08T03:55:42.518Z,93796.50
2023-04-08T03:56:39.231Z,93799.63
2023-04-08T03:57:35.915Z,93799.03
2023-04-08T03:58:32.575Z,93797.00
2023-04-08T03:59:29.358Z,93801.59
2023-04-08T04:00:25.987Z,93798.34
2023-04-08T04:01:22.572Z,93793.66
2023-04-08T04:02:19.249Z,93795.88
2023-04-08T04:03:16.258Z,93794.94
2023-04-08T04:04:13.533Z,93787.19
2023-04-08T04:05:11.231Z,93761.41
2023-04-08T04:06:07.998Z,93795.50
2023-04-08T04:07:04.553Z,93793.22
2023-04-08T04:08:01.253Z,93792.50
2023-04-08T04:08:57.865Z,93797.38
2023-04-08T04:09:56.945Z,93784.22
2023-04-08T04:10:53.621Z,93793.53
2023-04-08T04:11:50.443Z,93790.78
2023-04-08T04:12:47.775Z,93787.53
2023-04-08T04:13:44.446Z,93787.25
2023-04-08T04:14:41.113Z,93791.72
2023-04-08T04:15:41.417Z,93791.00
2023-04-08T04:16:38.135Z,93780.72
2023-04-08T04:17:34.760Z,93800.59
2023-04-08T04:18:31.433Z,93795.22
2023-04-08T04:19:31.997Z,93799.03
2023-04-08T04:20:30.355Z,93797.53
2023-04-08T04:21:27.310Z,93772.81
2023-04-08T04:22:24.208Z,93794.19
2023-04-08T04:23:21.354Z,93771.94
2023-04-08T04:24:18.097Z,93800.06
2023-04-08T04:25:14.680Z,93803.13
2023-04-08T04:26:12.036Z,93771.00
2023-04-08T04:27:08.669Z,93805.69
2023-04-08T04:28:05.566Z,93801.38
2023-04-08T04:29:02.095Z,93800.59
2023-04-08T04:29:58.698Z,93802.69
2023-04-08T04:30:56.550Z,93771.25
2023-04-08T04:31:53.486Z,93812.56
2023-04-08T04:32:50.094Z,93817.88
2023-04-08T04:33:47.424Z,93809.50
2023-04-08T04:34:44.787Z,93817.66
2023-04-08T04:35:41.492Z,93814.34
2023-04-08T04:36:38.153Z,93816.31
2023-04-08T04:37:34.887Z,93823.63
2023-04-08T04:38:31.670Z,93781.91
2023-04-08T04:39:28.266Z,93816.19
2023-04-08T04:40:24.937Z,93816.84
2023-04-08T04:41:22.012Z,93800.38
2023-04-08T04:42:18.608Z,93813.88
2023-04-08T04:43:15.394Z,93816.97
2023-04-08T04:44:12.151Z,93814.69
2023-04-08T04:45:10.120Z,93817.31
2023-04-08T04:46:09.083Z,93818.06
2023-04-08T04:47:05.813Z,93818.47
2023-04-08T04:48:03.783Z,93789.97
2023-04-08T04:49:00.464Z,93813.97
2023-04-08T04:49:57.013Z,93819.84
2023-04-08T04:50:57.921Z,93816.63
2023-04-08T04:51:54.579Z,93817.53
2023-04-08T04:52:51.412Z,93818.97
2023-04-08T04:53:49.992Z,93815.31
2023-04-08T04:54:46.572Z,93815.81
2023-04-08T04:55:43.129Z,93815.22
2023-04-08T04:56:39.780Z,93800.13
2023-04-08T04:57:36.339Z,93784.84
2023-04-08T04:58:32.936Z,93726.16
2023-04-08T04:59:29.549Z,93818.78
2023-04-08T05:00:26.147Z,93712.50
2023-04-08T05:01:22.799Z,93812.06
2023-04-08T05:02:19.505Z,93776.13
2023-04-08T05:03:16.782Z,93802.59
2023-04-08T05:04:13.597Z,93738.91
2023-04-08T05:05:10.650Z,93772.28
2023-04-08T05:06:07.333Z,93815.38
2023-04-08T05:07:03.910Z,93811.19
2023-04-08T05:08:00.554Z,93815.50
2023-04-08T05:08:57.137Z,93822.06
2023-04-08T05:09:54.686Z,93781.25
2023-04-08T05:10:51.451Z,93817.38
2023-04-08T05:11:48.076Z,93813.50
2023-04-08T05:12:44.715Z,93816.28
2023-04-08T05:13:41.777Z,93804.09
2023-04-08T05:14:38.417Z,93707.66
2023-04-08T05:15:35.059Z,93812.19
2023-04-08T05:16:31.897Z,93815.25
2023-04-08T05:17:28.582Z,93780.97
2023-04-08T05:18:25.294Z,93812.94
2023-04-08T05:19:23.405Z,93820.88
2023-04-08T05:20:20.085Z,93815.88
2023-04-08T05:21:16.664Z,93805.03
2023-04-08T05:22:13.371Z,93820.97
2023-04-08T05:23:10.033Z,93819.59
2023-04-08T05:24:06.996Z,93821.44
2023-04-08T05:25:04.692Z,93816.78
2023-04-08T05:26:01.471Z,93820.09
2023-04-08T05:26:58.059Z,93811.81
2023-04-08T05:27:54.811Z,93808.72
2023-04-08T05:28:52.081Z,93780.81
2023-04-08T05:29:48.891Z,93813.81
2023-04-08T05:30:52.463Z,93772.91
2023-04-08T05:31:49.439Z,93818.22
2023-04-08T05:32:46.469Z,93817.31
2023-04-08T05:33:43.268Z,93805.00
2023-04-08T05:34:39.872Z,93813.59
2023-04-08T05:35:36.547Z,93810.38
2023-04-08T05:36:33.098Z,93797.44
2023-04-08T05:37:29.957Z,93821.53
2023-04-08T05:38:26.626Z,93820.72
2023-04-08T05:39:23.242Z,93812.78
2023-04-08T05:40:19.953Z,93813.72
2023-04-08T05:41:16.530Z,93815.50
2023-04-08T05:42:13.993Z,93817.50
2023-04-08T05:43:10.664Z,93760.53
2023-04-08T05:44:07.842Z,93806.00
2023-04-08T05:45:05.548Z,93818.31
2023-04-08T05:46:09.705Z,93804.16
2023-04-08T05:47:06.409Z,93820.50
2023-04-08T05:48:03.108Z,93822.03
2023-04-08T05:48:59.698Z,93828.56
2023-04-08T05:49:56.438Z,93828.09
2023-04-08T05:50:53.003Z,93824.06
2023-04-08T05:51:49.618Z,93773.47
2023-04-08T05:52:46.344Z,93824.06
2023-04-08T05:53:42.959Z,93830.47
2023-04-08T05:54:43.460Z,93830.16
2023-04-08T05:55:40.904Z,93827.66
2023-04-08T05:56:37.472Z,93827.00
2023-04-08T05:57:34.160Z,93829.69
2023-04-08T05:58:30.733Z,93825.34
2023-04-08T05:59:27.275Z,93832.47
2023-04-08T06:00:23.965Z,93835.28
2023-04-08T06:01:20.637Z,93820.34
2023-04-08T06:02:17.325Z,93829.53
2023-04-08T06:03:14.329Z,93833.25
2023-04-08T06:04:11.424Z,93807.88
2023-04-08T06:05:08.507Z,93819.97
2023-04-08T06:06:11.445Z,93823.41
2023-04-08T06:07:08.537Z,93824.84
2023-04-08T06:08:05.359Z,93818.91
2023-04-08T06:09:02.067Z,93819.03
2023-04-08T06:09:58.716Z,93818.44
2023-04-08T06:10:55.644Z,93825.47
2023-04-08T06:11:52.605Z,93803.22
2023-04-08T06:12:49.237Z,93824.63
2023-04-08T06:13:45.929Z,93816.88
2023-04-08T06:14:42.641Z,93817.00
2023-04-08T06:15:39.221Z,93825.59
2023-04-08T06:16:35.849Z,93821.81
2023-04-08T06:17:32.714Z,93821.03
2023-04-08T06:18:29.297Z,93818.13
2023-04-08T06:19:25.988Z,93813.09
2023-04-08T06:20:22.737Z,93813.69
2023-04-08T06:21:19.342Z,93812.41
2023-04-08T06:22:16.125Z,93805.72
2023-04-08T06:23:13.103Z,93828.38
2023-04-08T06:24:09.642Z,93819.03
2023-04-08T06:25:07.173Z,93815.44
2023-04-08T06:26:04.854Z,93814.06
2023-04-08T06:27:01.545Z,93816.72
2023-04-08T06:27:58.290Z,93775.31
2023-04-08T06:28:54.990Z,93788.38
2023-04-08T06:29:52.190Z,93816.94
2023-04-08T06:30:48.729Z,93814.75
2023-04-08T06:31:45.783Z,93820.47
2023-04-08T06:32:42.504Z,93822.72
2023-04-08T06:33:39.239Z,93820.72
2023-04-08T06:34:35.845Z,93817.06
2023-04-08T06:35:32.774Z,93818.59
2023-04-08T06:36:29.512Z,93826.28
2023-04-08T06:37:26.235Z,93807.09
2023-04-08T06:38:22.805Z,93813.44
2023-04-08T06:39:21.316Z,93822.41
2023-04-08T06:40:18.026Z,93818.94
2023-04-08T06:41:14.666Z,93814.28
2023-04-08T06:42:11.302Z,93803.47
2023-04-08T06:43:08.198Z,93818.66
2023-04-08T06:44:04.822Z,93811.00
2023-04-08T06:45:01.606Z,93797.16
2023-04-08T06:45:58.402Z,93816.19
2023-04-08T06:46:55.104Z,93816.22
2023-04-08T06:47:51.823Z,93815.34
2023-04-08T06:48:48.665Z,93806.03
2023-04-08T06:49:46.688Z,93811.09
2023-04-08T06:50:44.144Z,93822.09
2023-04-08T06:51:40.992Z,93819.47
2023-04-08T06:52:37.714Z,93822.03
2023-04-08T06:53:34.422Z,93808.78
2023-04-08T06:54:31.147Z,93819.09
2023-04-08T06:55:27.901Z,93829.34
2023-04-08T06:56:26.292Z,93823.66
2023-04-08T06:57:23.308Z,93820.22
2023-04-08T06:58:19.952Z,93830.03
2023-04-08T06:59:16.895Z,93819.44
2023-04-08T07:00:13.827Z,93831.03
2023-04-08T07:01:10.687Z,93832.13
2023-04-08T07:02:07.502Z,93800.03
2023-04-08T07:03:04.268Z,93829.38
2023-04-08T07:04:02.509Z,93831.84
2023-04-08T07:04:59.240Z,93834.09
2023-04-08T07:05:55.980Z,93824.97
2023-04-08T07:06:52.848Z,93784.91
2023-04-08T07:07:49.413Z,93834.66
2023-04-08T07:08:46.453Z,93833.91
2023-04-08T07:09:45.942Z,93834.09
2023-04-08T07:10:42.607Z,93841.13
2023-04-08T07:11:39.304Z,93835.31
2023-04-08T07:12:35.867Z,93787.09
2023-04-08T07:13:32.526Z,93834.56
2023-04-08T07:14:30.280Z,93842.53
2023-04-08T07:15:26.983Z,93703.34
2023-04-08T07:16:23.567Z,93833.09
2023-04-08T07:17:20.357Z,93834.16
2023-04-08T07:18:17.232Z,93840.25
2023-04-08T07:19:13.867Z,93831.19
2023-04-08T07:20:10.902Z,93825.13
2023-04-08T07:21:07.533Z,93841.66
2023-04-08T07:22:04.275Z,93835.13
2023-04-08T07:23:01.009Z,93844.63
2023-04-08T07:23:57.634Z,93844.88
2023-04-08T07:24:54.340Z,93843.94
2023-04-08T07:25:50.914Z,93844.28
2023-04-08T07:26:47.892Z,93800.28
2023-04-08T07:27:44.688Z,93843.03
2023-04-08T07:28:41.773Z,93846.69
2023-04-08T07:29:38.440Z,93839.59
2023-04-08T07:30:35.209Z,93845.59
2023-04-08T07:31:32.058Z,93844.13
2023-04-08T07:32:28.849Z,93749.97
2023-04-08T07:33:26.553Z,93847.28
2023-04-08T07:34:23.183Z,93850.91
2023-04-08T07:35:24.464Z,93840.38
2023-04-08T07:36:22.160Z,93844.91
2023-04-08T07:37:19.208Z,93846.97
2023-04-08T07:38:16.641Z,93851.38
2023-04-08T07:39:13.284Z,93847.63
2023-04-08T07:40:10.357Z,93867.72
2023-04-08T07:41:07.316Z,93812.84
2023-04-08T07:42:03.887Z,93775.03
2023-04-08T07:43:00.712Z,93856.25
2023-04-08T07:43:57.288Z,93855.34
2023-04-08T07:44:54.038Z,93857.13
2023-04-08T07:45:51.345Z,93862.00
2023-04-08T07:46:51.988Z,93860.88
2023-04-08T07:47:48.659Z,93866.94
2023-04-08T07:48:45.378Z,93857.28
2023-04-08T07:49:41.977Z,93860.78
2023-04-08T07:51:09.455Z,93869.19
2023-04-08T07:51:55.834Z,93857.91
2023-04-08T07:52:53.405Z,93868.59
2023-04-08T07:53:50.055Z,93858.97
2023-04-08T07:54:46.645Z,93871.22
2023-04-08T07:55:43.524Z,93811.00
2023-04-08T07:56:40.520Z,93871.75
2023-04-08T07:57:37.307Z,93874.06
2023-04-08T07:58:34.029Z,93872.28
2023-04-08T07:59:32.097Z,93810.38
2023-04-08T08:00:30.781Z,93872.63
2023-04-08T08:01:31.409Z,93874.09
2023-04-08T08:02:28.294Z,93879.75
2023-04-08T08:03:25.621Z,93874.69
2023-04-08T08:04:25.809Z,93884.81
2023-04-08T08:05:22.826Z,93853.25
2023-04-08T08:06:19.522Z,93881.88
2023-04-08T08:07:16.401Z,93875.00
2023-04-08T08:08:13.038Z,93878.66
2023-04-08T08:09:09.990Z,93875.56
2023-04-08T08:10:07.260Z,93877.06
2023-04-08T08:11:04.002Z,93872.97
2023-04-08T08:12:00.787Z,93885.28
2023-04-08T08:12:57.424Z,93828.50
2023-04-08T08:13:54.194Z,93788.69
2023-04-08T08:14:51.744Z,93879.53
2023-04-08T08:15:53.574Z,93874.41
2023-04-08T08:16:50.234Z,93874.09
2023-04-08T08:17:46.898Z,93870.59
2023-04-08T08:18:43.624Z,93856.25
2023-04-08T08:19:40.206Z,93877.41
2023-04-08T08:20:36.822Z,93868.25
2023-04-08T08:21:33.548Z,93867.16
2023-04-08T08:22:30.386Z,93871.91
2023-04-08T08:23:27.224Z,93824.88
2023-04-08T08:24:23.832Z,93869.09
2023-04-08T08:25:20.661Z,93887.66
2023-04-08T08:26:17.309Z,93886.38
2023-04-08T08:27:13.932Z,93875.16
2023-04-08T08:28:10.514Z,93844.06
2023-04-08T08:29:08.934Z,93885.13
2023-04-08T08:30:06.936Z,93895.31
2023-04-08T08:31:03.714Z,93880.00
2023-04-08T08:32:00.535Z,93893.88
2023-04-08T08:32:59.242Z,93893.47
2023-04-08T08:33:56.150Z,93894.38
2023-04-08T08:34:52.738Z,93898.19
2023-04-08T08:35:49.333Z,93899.28
2023-04-08T08:36:46.030Z,93900.00
2023-04-08T08:37:43.082Z,93896.25
2023-04-08T08:38:39.830Z,93896.84
2023-04-08T08:39:36.728Z,93892.81
2023-04-08T08:40:33.422Z,93891.50
2023-04-08T08:41:38.823Z,93860.75
2023-04-08T08:42:35.472Z,93890.28
2023-04-08T08:43:35.742Z,93895.13
2023-04-08T08:44:32.701Z,93891.69
2023-04-08T08:45:29.670Z,93894.00
2023-04-08T08:46:26.279Z,93903.13
2023-04-08T08:47:22.985Z,93899.16
2023-04-08T08:48:19.858Z,93901.25
2023-04-08T08:49:16.460Z,93899.16
2023-04-08T08:50:13.170Z,93891.94
2023-04-08T08:51:11.037Z,93861.16
2023-04-08T08:52:07.787Z,93903.56
2023-04-08T08:53:04.431Z,93901.38
2023-04-08T08:54:04.594Z,93903.81
2023-04-08T08:55:01.459Z,93904.03
2023-04-08T08:56:57.494Z,93900.13
2023-04-08T08:57:54.178Z,93898.00
2023-04-08T08:58:50.736Z,93897.56
2023-04-08T08:59:50.771Z,93901.00
2023-04-08T09:00:47.576Z,93894.22
2023-04-08T09:01:44.429Z,93891.16
2023-04-08T09:02:41.397Z,93896.06
2023-04-08T09:03:38.331Z,93860.66
2023-04-08T09:04:35.452Z,93895.22
2023-04-08T09:05:48.360Z,93899.16
2023-04-08T09:06:47.052Z,93895.13
2023-04-08T09:07:44.741Z,93888.38
2023-04-08T09:08:42.207Z,93894.03
2023-04-08T09:09:52.111Z,93892.47
2023-04-08T09:10:48.700Z,93784.66
2023-04-08T09:11:47.214Z,93895.25
2023-04-08T09:12:56.550Z,93892.59
2023-04-08T09:13:53.331Z,93887.16
2023-04-08T09:14:50.393Z,93896.72
2023-04-08T09:16:18.337Z,93889.59
2023-04-08T09:17:16.405Z,93886.06
2023-04-08T09:18:23.360Z,93895.94
2023-04-08T09:19:21.614Z,93896.69
2023-04-08T09:20:18.151Z,93864.94
2023-04-08T09:21:19.383Z,93888.88
2023-04-08T09:22:16.582Z,93898.41
2023-04-08T09:23:13.150Z,93894.22
2023-04-08T09:24:26.918Z,93891.09
2023-04-08T09:25:33.861Z,93895.38
2023-04-08T09:26:30.555Z,93900.91
2023-04-08T09:27:35.582Z,93889.50
2023-04-08T09:28:32.494Z,93887.34
2023-04-08T09:29:33.360Z,93896.59
2023-04-08T09:30:32.539Z,93901.38
2023-04-08T09:31:31.414Z,93854.75
2023-04-08T09:32:47.776Z,93895.81
2023-04-08T09:33:44.485Z,93855.03
2023-04-08T09:34:41.262Z,93900.25
2023-04-08T09:35:38.798Z,93898.75
2023-04-08T09:36:35.471Z,93880.59
2023-04-08T09:37:32.517Z,93795.84
2023-04-08T09:38:29.152Z,93897.44
2023-04-08T09:39:25.868Z,93894.69
2023-04-08T09:40:25.019Z,93890.44
2023-04-08T09:41:24.351Z,93855.53
2023-04-08T09:42:22.223Z,93849.50
2023-04-08T09:43:24.166Z,93892.09
2023-04-08T09:44:21.840Z,93890.31
2023-04-08T09:45:19.314Z,93892.94
2023-04-08T09:46:18.749Z,93892.56
2023-04-08T09:47:29.188Z,93879.31
2023-04-08T09:48:32.965Z,93883.53
2023-04-08T09:49:46.417Z,93892.31
2023-04-08T09:50:53.506Z,93811.53
2023-04-08T09:52:00.755Z,93883.34
2023-04-08T09:53:02.190Z,93882.22
2023-04-08T09:54:06.820Z,93887.34
2023-04-08T09:55:05.965Z,93889.22
2023-04-08T09:56:08.200Z,93874.94
2023-04-08T09:57:10.068Z,93873.53
2023-04-08T09:58:19.102Z,93874.09
2023-04-08T09:59:18.645Z,93872.50
2023-04-08T10:00:17.049Z,93870.69
2023-04-08T10:01:21.423Z,93871.09
2023-04-08T10:02:28.773Z,93872.50
2023-04-08T10:03:40.488Z,93874.91
2023-04-08T10:04:41.992Z,93871.94
2023-04-08T10:05:41.734Z,93865.34
2023-04-08T10:06:39.683Z,93858.28
2023-04-08T10:07:36.472Z,93816.25
2023-04-08T10:08:33.491Z,93862.69
2023-04-08T10:09:31.039Z,93861.53
2023-04-08T10:10:27.929Z,93828.78
2023-04-08T10:11:24.740Z,93842.75
2023-04-08T10:12:21.718Z,93852.97
2023-04-08T10:13:18.877Z,93845.47
2023-04-08T10:14:15.485Z,93857.88
2023-04-08T10:15:43.209Z,93848.16
2023-04-08T10:16:39.918Z,93856.09
2023-04-08T10:17:36.916Z,93852.41
2023-04-08T10:18:33.711Z,93845.66
2023-04-08T10:19:41.445Z,93849.34
2023-04-08T10:20:38.086Z,93846.66
2023-04-08T10:21:48.673Z,93837.16
2023-04-08T10:22:49.088Z,93841.09
2023-04-08T10:24:00.197Z,93841.69
2023-04-08T10:25:18.408Z,93841.44
2023-04-08T10:26:33.655Z,93836.44
2023-04-08T10:27:43.318Z,93852.81
2023-04-08T10:28:39.950Z,93843.03
2023-04-08T10:29:36.688Z,93837.25
2023-04-08T10:30:33.419Z,93844.88
2023-04-08T10:31:30.178Z,93842.69
2023-04-08T10:32:30.354Z,93821.03
2023-04-08T10:33:29.801Z,93837.50
2023-04-08T10:34:27.601Z,93804.78
2023-04-08T10:35:31.426Z,93836.91
2023-04-08T10:36:28.202Z,93827.97
2023-04-08T10:37:24.907Z,93832.09
2023-04-08T10:38:22.253Z,93830.72
2023-04-08T10:39:19.519Z,93830.88
2023-04-08T10:40:22.117Z,93794.03
2023-04-08T10:41:24.303Z,93830.56
2023-04-08T10:42:27.422Z,93815.75
2023-04-08T10:43:24.284Z,93827.03
2023-04-08T10:44:20.880Z,93823.59
2023-04-08T10:45:18.169Z,93824.06
2023-04-08T10:46:14.790Z,93816.16
2023-04-08T10:47:12.761Z,93820.63
2023-04-08T10:48:18.185Z,93809.97
2023-04-08T10:49:17.572Z,93816.06
2023-04-08T10:50:19.265Z,93818.81
2023-04-08T10:51:16.829Z,93817.88
2023-04-08T10:52:14.984Z,93803.16
2023-04-08T10:53:11.810Z,93809.09
2023-04-08T10:54:09.994Z,93827.75
2023-04-08T10:55:07.543Z,93818.06
2023-04-08T10:56:06.286Z,93821.19
2023-04-08T10:57:03.099Z,93806.97
2023-04-08T10:58:09.524Z,93778.06
2023-04-08T10:59:06.410Z,93813.63
2023-04-08T11:00:05.829Z,93819.06
2023-04-08T11:01:07.106Z,93813.31
2023-04-08T11:02:04.059Z,93820.13
2023-04-08T11:03:05.179Z,93809.34
2023-04-08T11:04:02.501Z,93818.41
2023-04-08T11:04:59.222Z,93816.47
2023-04-08T11:05:58.014Z,93803.75
2023-04-08T11:06:54.627Z,93815.38
2023-04-08T11:07:52.683Z,93808.09
2023-04-08T11:08:49.336Z,93807.47
2023-04-08T11:09:45.952Z,93801.75
2023-04-08T11:10:42.772Z,93803.06
2023-04-08T11:11:42.688Z,93781.41
2023-04-08T11:12:40.190Z,93798.84
2023-04-08T11:13:39.330Z,93802.97
2023-04-08T11:14:38.414Z,93790.91
2023-04-08T11:15:36.498Z,93792.59
2023-04-08T11:16:35.083Z,93792.47
2023-04-08T11:17:35.052Z,93752.19
2023-04-08T11:18:32.358Z,93757.81
2023-04-08T11:19:29.688Z,93749.81
2023-04-08T11:20:26.490Z,93790.84
2023-04-08T11:21:29.585Z,93795.91
2023-04-08T11:22:27.342Z,93790.75
2023-04-08T11:23:27.409Z,93752.47
2023-04-08T11:24:24.210Z,93746.41
2023-04-08T11:25:21.880Z,93787.00
2023-04-08T11:26:20.111Z,93783.47